Thursday, July 19, 2018, 1:32 AM EDT
Back to Local

KITH, Ithaca, Ithaca Tompkins Regional Airport

Location: Ithaca, NY, United States Lat: 42.491
Local Time: 1:32 AM EDT ( 5:32 GMT) Lon: -76.458
Time Zone: US/Eastern Elev: 1099 ft

Show me the last for .
Show Decoded

2018-07-19 00:56 METAR KITH 190456Z AUTO 00000KT 10SM CLR 09/08 A3010 RMK AO2 SLP190 T00890078 =
2018-07-18 23:56 METAR KITH 190356Z AUTO 06003KT 10SM CLR 11/09 A3009 RMK AO2 SLP187 T01060089
                 402330094 =
2018-07-18 22:56 METAR KITH 190256Z AUTO 07003KT 10SM CLR 10/09 A3008 RMK AO2 SLP186 T01000089
                 53009 =
2018-07-18 21:56 METAR KITH 190156Z 00000KT 10SM CLR 11/10 A3008 RMK AO2 SLP184 T01110100 =
2018-07-18 20:56 METAR KITH 190056Z 02003KT 10SM CLR 14/09 A3005 RMK AO2 SLP174 T01440094 =
2018-07-18 19:56 METAR KITH 182356Z 35005KT 10SM CLR 19/07 A3006 RMK AO2 SLP174 T01890067 10233
                 20189 53003 =
2018-07-18 18:56 METAR KITH 182256Z 36009KT 10SM CLR 21/08 A3004 RMK AO2 SLP170 T02060083 =
2018-07-18 17:56 METAR KITH 182156Z 34010KT 10SM CLR 21/09 A3004 RMK AO2 SLP169 T02110089 =
2018-07-18 16:56 METAR KITH 182056Z 33009G15KT 10SM CLR 22/08 A3004 RMK AO2 SLP169 T02220083
                 55002 =
2018-07-18 15:56 METAR KITH 181956Z 32007G16KT 10SM CLR 23/09 A3004 RMK AO2 SLP168 T02280089 =
2018-07-18 14:56 METAR KITH 181856Z 32011G16KT 10SM FEW049 23/11 A3005 RMK AO2 SLP170 T02280106 =
2018-07-18 13:56 METAR KITH 181756Z 32010G17KT 10SM SCT050 22/11 A3005 RMK AO2 SLP172 T02220111
                 10228 20178 58002 =
2018-07-18 12:56 METAR KITH 181656Z 32011G14KT 10SM BKN045 22/12 A3006 RMK AO2 SLP173 T02220122 =
2018-07-18 11:56 METAR KITH 181556Z 32008KT 280V340 10SM BKN047 21/14 A3006 RMK AO2 SLP176
                 T02060139 =
2018-07-18 10:56 METAR KITH 181456Z 33008G14KT 10SM SCT035 21/13 A3006 RMK AO2 SLP175 T02110133
                 51010 =
2018-07-18 09:56 METAR KITH 181356Z 34005KT 10SM SCT028 19/13 A3004 RMK AO2 SLP170 T01940133 =
2018-07-18 08:56 METAR KITH 181256Z 03007KT 10SM SCT060 19/13 A3004 RMK AO2 SLP168 T01940133 =
2018-07-18 07:56 METAR KITH 181156Z 34004KT 10SM OVC055 18/13 A3003 RMK AO2 SLP162 7////
                 T01780133 10178 20150 51019 =
2018-07-18 06:56 METAR KITH 181056Z 33006KT 10SM BKN055 17/13 A3001 RMK AO2 SLP156 T01670133 =
2018-07-18 06:30 METAR KITH 181030Z 32004KT 10SM OVC050 17/14 A3000 RMK AO2 =
2018-07-18 05:56 METAR KITH 180956Z AUTO 33005KT 10SM BKN055 16/14 A2999 RMK AO2 SLP150 T01610139
                 =
2018-07-18 04:56 METAR KITH 180856Z AUTO 32003KT 10SM SCT055 16/14 A2997 RMK AO2 SLP142 T01610144
                 53010 =
2018-07-18 03:56 METAR KITH 180756Z AUTO 34005KT 10SM CLR 16/14 A2996 RMK AO2 SLP138 T01610139 =
2018-07-18 02:56 METAR KITH 180656Z AUTO 33005KT 10SM FEW050 16/13 A2995 RMK AO2 SLP135 T01610133
                 =
2018-07-18 01:56 METAR KITH 180556Z AUTO 34005KT 10SM CLR 17/13 A2994 RMK AO2 SLP132 T01670128
                 10228 20139 53000 =

Support USWX by starting your Amazon purchase here.